sensor_id;sensor_type;location;lat;lon;timestamp;pressure;altitude;pressure_sealevel;temperature
45393;BMP280;31129;44.810;10.334;2024-01-06T00:00:29;76139.63;;;7.09
45393;BMP280;31129;44.810;10.334;2024-01-06T00:02:55;76140.16;;;7.09
45393;BMP280;31129;44.810;10.334;2024-01-06T00:05:20;76137.94;;;7.05
45393;BMP280;31129;44.810;10.334;2024-01-06T00:07:46;76130.91;;;7.03
45393;BMP280;31129;44.810;10.334;2024-01-06T00:10:11;76133.59;;;7.03
45393;BMP280;31129;44.810;10.334;2024-01-06T00:12:37;76137.97;;;7.07
45393;BMP280;31129;44.810;10.334;2024-01-06T00:15:03;76134.09;;;7.01
45393;BMP280;31129;44.810;10.334;2024-01-06T00:17:29;76133.59;;;7.03
45393;BMP280;31129;44.810;10.334;2024-01-06T00:19:54;76145.03;;;7.11
45393;BMP280;31129;44.810;10.334;2024-01-06T00:22:20;76143.38;;;7.10
45393;BMP280;31129;44.810;10.334;2024-01-06T00:24:46;76137.94;;;7.05
45393;BMP280;31129;44.810;10.334;2024-01-06T00:27:12;76146.13;;;7.12
45393;BMP280;31129;44.810;10.334;2024-01-06T00:29:38;76146.16;;;7.15
45393;BMP280;31129;44.810;10.334;2024-01-06T00:32:05;76144.47;;;7.11
45393;BMP280;31129;44.810;10.334;2024-01-06T00:34:30;76147.22;;;7.13
45393;BMP280;31129;44.810;10.334;2024-01-06T00:36:56;76151.53;;;7.15
45393;BMP280;31129;44.810;10.334;2024-01-06T00:39:21;76154.88;;;7.20
45393;BMP280;31129;44.810;10.334;2024-01-06T00:41:47;76150.00;;;7.18
45393;BMP280;31129;44.810;10.334;2024-01-06T00:44:12;76145.66;;;7.17
45393;BMP280;31129;44.810;10.334;2024-01-06T00:46:39;76149.41;;;7.15
45393;BMP280;31129;44.810;10.334;2024-01-06T00:49:04;76154.38;;;7.22
45393;BMP280;31129;44.810;10.334;2024-01-06T00:51:30;76146.72;;;7.15
45393;BMP280;31129;44.810;10.334;2024-01-06T00:53:55;76157.09;;;7.25
45393;BMP280;31129;44.810;10.334;2024-01-06T00:56:22;76164.75;;;7.32
45393;BMP280;31129;44.810;10.334;2024-01-06T00:58:47;76160.34;;;7.25
45393;BMP280;31129;44.810;10.334;2024-01-06T01:01:13;76158.25;;;7.29
45393;BMP280;31129;44.810;10.334;2024-01-06T01:03:38;76166.38;;;7.34
45393;BMP280;31129;44.810;10.334;2024-01-06T01:06:03;76157.06;;;7.22
45393;BMP280;31129;44.810;10.334;2024-01-06T01:08:29;76158.16;;;7.23
45393;BMP280;31129;44.810;10.334;2024-01-06T01:10:56;76157.59;;;7.23
45393;BMP280;31129;44.810;10.334;2024-01-06T01:13:22;76152.19;;;7.20
45393;BMP280;31129;44.810;10.334;2024-01-06T01:15:48;76147.31;;;7.18
45393;BMP280;31129;44.810;10.334;2024-01-06T01:18:13;76159.84;;;7.28
45393;BMP280;31129;44.810;10.334;2024-01-06T01:20:40;76155.47;;;7.23
45393;BMP280;31129;44.810;10.334;2024-01-06T01:23:07;76155.47;;;7.23
45393;BMP280;31129;44.810;10.334;2024-01-06T01:25:33;76159.78;;;7.25
45393;BMP280;31129;44.810;10.334;2024-01-06T01:27:59;76160.28;;;7.23
45393;BMP280;31129;44.810;10.334;2024-01-06T01:30:25;76157.66;;;7.25
45393;BMP280;31129;44.810;10.334;2024-01-06T01:32:50;76152.63;;;7.16
45393;BMP280;31129;44.810;10.334;2024-01-06T01:35:16;76152.22;;;7.23
45393;BMP280;31129;44.810;10.334;2024-01-06T01:37:41;76158.75;;;7.26
45393;BMP280;31129;44.810;10.334;2024-01-06T01:40:07;76156.56;;;7.24
45393;BMP280;31129;44.810;10.334;2024-01-06T01:42:33;76165.31;;;7.33
45393;BMP280;31129;44.810;10.334;2024-01-06T01:44:59;76153.88;;;7.24
45393;BMP280;31129;44.810;10.334;2024-01-06T01:47:25;76162.56;;;7.30
45393;BMP280;31129;44.810;10.334;2024-01-06T01:49:50;76163.06;;;7.28
45393;BMP280;31129;44.810;10.334;2024-01-06T01:52:17;76162.56;;;7.30
45393;BMP280;31129;44.810;10.334;2024-01-06T01:54:45;76163.66;;;7.31
45393;BMP280;31129;44.810;10.334;2024-01-06T01:57:12;76162.56;;;7.30
45393;BMP280;31129;44.810;10.334;2024-01-06T01:59:39;76164.72;;;7.30
45393;BMP280;31129;44.810;10.334;2024-01-06T02:02:05;76147.25;;;7.16
45393;BMP280;31129;44.810;10.334;2024-01-06T02:04:31;76159.84;;;7.28
45393;BMP280;31129;44.810;10.334;2024-01-06T02:06:57;76163.13;;;7.31
45393;BMP280;31129;44.810;10.334;2024-01-06T02:09:22;76165.31;;;7.33
45393;BMP280;31129;44.810;10.334;2024-01-06T02:11:52;76160.38;;;7.28
45393;BMP280;31129;44.810;10.334;2024-01-06T02:14:18;76163.13;;;7.31
45393;BMP280;31129;44.810;10.334;2024-01-06T02:16:44;76162.53;;;7.28
45393;BMP280;31129;44.810;10.334;2024-01-06T02:19:11;76156.59;;;7.27
45393;BMP280;31129;44.810;10.334;2024-01-06T02:21:41;76162.56;;;7.30
45393;BMP280;31129;44.810;10.334;2024-01-06T02:24:07;76159.84;;;7.28
45393;BMP280;31129;44.810;10.334;2024-01-06T02:26:33;76160.44;;;7.31
45393;BMP280;31129;44.810;10.334;2024-01-06T02:28:58;76166.81;;;7.26
45393;BMP280;31129;44.810;10.334;2024-01-06T02:31:24;76162.53;;;7.28
45393;BMP280;31129;44.810;10.334;2024-01-06T02:33:49;76154.91;;;7.23
45393;BMP280;31129;44.810;10.334;2024-01-06T02:36:15;76152.19;;;7.20
45393;BMP280;31129;44.810;10.334;2024-01-06T02:38:40;76154.38;;;7.22
45393;BMP280;31129;44.810;10.334;2024-01-06T02:41:06;76154.38;;;7.22
45393;BMP280;31129;44.810;10.334;2024-01-06T02:43:31;76151.03;;;7.17
45393;BMP280;31129;44.810;10.334;2024-01-06T02:45:57;76143.94;;;7.10
45393;BMP280;31129;44.810;10.334;2024-01-06T02:48:22;76144.53;;;7.13
45393;BMP280;31129;44.810;10.334;2024-01-06T02:50:48;76146.16;;;7.15
45393;BMP280;31129;44.810;10.334;2024-01-06T02:53:13;76151.66;;;7.20
45393;BMP280;31129;44.810;10.334;2024-01-06T02:55:39;76145.16;;;7.19
45393;BMP280;31129;44.810;10.334;2024-01-06T02:58:04;76151.00;;;7.14
45393;BMP280;31129;44.810;10.334;2024-01-06T03:00:30;76148.31;;;7.14
45393;BMP280;31129;44.810;10.334;2024-01-06T03:02:55;76151.59;;;7.17
45393;BMP280;31129;44.810;10.334;2024-01-06T03:05:21;76154.88;;;7.20
45393;BMP280;31129;44.810;10.334;2024-01-06T03:07:46;76145.63;;;7.14
45393;BMP280;31129;44.810;10.334;2024-01-06T03:10:12;76141.31;;;7.15
45393;BMP280;31129;44.810;10.334;2024-01-06T03:12:37;76136.81;;;7.04
45393;BMP280;31129;44.810;10.334;2024-01-06T03:15:03;76140.19;;;7.12
45393;BMP280;31129;44.810;10.334;2024-01-06T03:17:28;76144.47;;;7.11
45393;BMP280;31129;44.810;10.334;2024-01-06T03:19:54;76142.31;;;7.09
45393;BMP280;31129;44.810;10.334;2024-01-06T03:22:20;76131.50;;;7.06
45393;BMP280;31129;44.810;10.334;2024-01-06T03:24:45;76141.84;;;7.13
45393;BMP280;31129;44.810;10.334;2024-01-06T03:27:11;76151.16;;;7.24
45393;BMP280;31129;44.810;10.334;2024-01-06T03:29:37;76139.63;;;7.09
45393;BMP280;31129;44.810;10.334;2024-01-06T03:32:03;76133.03;;;7.03
45393;BMP280;31129;44.810;10.334;2024-01-06T03:34:29;76143.97;;;7.13
45393;BMP280;31129;44.810;10.334;2024-01-06T03:36:54;76142.84;;;7.09
45393;BMP280;31129;44.810;10.334;2024-01-06T03:39:20;76137.44;;;7.07
45393;BMP280;31129;44.810;10.334;2024-01-06T03:41:45;76132.06;;;7.07
45393;BMP280;31129;44.810;10.334;2024-01-06T03:44:11;76139.09;;;7.11
45393;BMP280;31129;44.810;10.334;2024-01-06T03:46:37;76146.75;;;7.18
45393;BMP280;31129;44.810;10.334;2024-01-06T03:49:03;76143.44;;;7.12
45393;BMP280;31129;44.810;10.334;2024-01-06T03:51:29;76133.09;;;7.05
45393;BMP280;31129;44.810;10.334;2024-01-06T03:53:54;76142.38;;;7.14
45393;BMP280;31129;44.810;10.334;2024-01-06T03:56:19;76141.28;;;7.13
45393;BMP280;31129;44.810;10.334;2024-01-06T03:58:46;76144.53;;;7.13
45393;BMP280;31129;44.810;10.334;2024-01-06T04:01:11;76142.31;;;7.09
45393;BMP280;31129;44.810;10.334;2024-01-06T04:03:38;76145.06;;;7.14
45393;BMP280;31129;44.810;10.334;2024-01-06T04:06:06;76140.13;;;7.07
45393;BMP280;31129;44.810;10.334;2024-01-06T04:08:31;76147.75;;;7.14
45393;BMP280;31129;44.810;10.334;2024-01-06T04:10:57;76147.25;;;7.16
45393;BMP280;31129;44.810;10.334;2024-01-06T04:13:22;76141.25;;;7.10
45393;BMP280;31129;44.810;10.334;2024-01-06T04:15:50;76136.38;;;7.08
45393;BMP280;31129;44.810;10.334;2024-01-06T04:18:16;76139.06;;;7.08
45393;BMP280;31129;44.810;10.334;2024-01-06T04:24:23;76139.63;;;7.09
45393;BMP280;31129;44.810;10.334;2024-01-06T04:26:49;76144.53;;;7.13
45393;BMP280;31129;44.810;10.334;2024-01-06T04:29:15;76155.97;;;7.21
45393;BMP280;31129;44.810;10.334;2024-01-06T04:31:41;76138.53;;;7.08
45393;BMP280;31129;44.810;10.334;2024-01-06T04:34:06;76149.94;;;7.16
45393;BMP280;31129;44.810;10.334;2024-01-06T04:36:32;76138.00;;;7.10
45393;BMP280;31129;44.810;10.334;2024-01-06T04:38:57;76143.38;;;7.10
45393;BMP280;31129;44.810;10.334;2024-01-06T04:41:23;76139.56;;;7.06
45393;BMP280;31129;44.810;10.334;2024-01-06T04:43:48;76134.75;;;7.07
45393;BMP280;31129;44.810;10.334;2024-01-06T04:46:14;76138.56;;;7.10
45393;BMP280;31129;44.810;10.334;2024-01-06T04:48:43;76143.44;;;7.12
45393;BMP280;31129;44.810;10.334;2024-01-06T04:51:09;76141.25;;;7.10
45393;BMP280;31129;44.810;10.334;2024-01-06T04:53:38;76139.06;;;7.08
45393;BMP280;31129;44.810;10.334;2024-01-06T04:56:04;76143.97;;;7.13
45393;BMP280;31129;44.810;10.334;2024-01-06T04:58:29;76137.97;;;7.07
45393;BMP280;31129;44.810;10.334;2024-01-06T05:00:55;76142.94;;;7.14
45393;BMP280;31129;44.810;10.334;2024-01-06T05:03:20;76149.41;;;7.15
45393;BMP280;31129;44.810;10.334;2024-01-06T05:05:46;76149.94;;;7.16
45393;BMP280;31129;44.810;10.334;2024-01-06T05:08:12;76138.00;;;7.10
45393;BMP280;31129;44.810;10.334;2024-01-06T05:10:37;76130.31;;;7.00
45393;BMP280;31129;44.810;10.334;2024-01-06T05:13:03;76139.63;;;7.09
45393;BMP280;31129;44.810;10.334;2024-01-06T05:15:28;76144.56;;;7.16
45393;BMP280;31129;44.810;10.334;2024-01-06T05:17:54;76143.97;;;7.13
45393;BMP280;31129;44.810;10.334;2024-01-06T05:20:20;76146.16;;;7.15
45393;BMP280;31129;44.810;10.334;2024-01-06T05:22:45;76151.66;;;7.20
45393;BMP280;31129;44.810;10.334;2024-01-06T05:25:10;76149.94;;;7.16
45393;BMP280;31129;44.810;10.334;2024-01-06T05:27:36;76147.25;;;7.16
45393;BMP280;31129;44.810;10.334;2024-01-06T05:30:02;76147.81;;;7.16
45393;BMP280;31129;44.810;10.334;2024-01-06T05:32:28;76151.66;;;7.20
45393;BMP280;31129;44.810;10.334;2024-01-06T05:34:53;76144.53;;;7.13
45393;BMP280;31129;44.810;10.334;2024-01-06T05:37:18;76155.38;;;7.18
45393;BMP280;31129;44.810;10.334;2024-01-06T05:39:44;76151.66;;;7.20
45393;BMP280;31129;44.810;10.334;2024-01-06T05:42:10;76155.47;;;7.23
45393;BMP280;31129;44.810;10.334;2024-01-06T05:44:40;76159.84;;;7.28
45393;BMP280;31129;44.810;10.334;2024-01-06T05:47:05;76159.78;;;7.25
45393;BMP280;31129;44.810;10.334;2024-01-06T05:49:31;76160.38;;;7.28
45393;BMP280;31129;44.810;10.334;2024-01-06T05:51:56;76160.38;;;7.28
45393;BMP280;31129;44.810;10.334;2024-01-06T05:54:22;76156.56;;;7.24
45393;BMP280;31129;44.810;10.334;2024-01-06T05:56:47;76162.53;;;7.28
45393;BMP280;31129;44.810;10.334;2024-01-06T05:59:12;76156.59;;;7.27
45393;BMP280;31129;44.810;10.334;2024-01-06T06:01:38;76160.94;;;7.29
45393;BMP280;31129;44.810;10.334;2024-01-06T06:04:03;76164.16;;;7.29
45393;BMP280;31129;44.810;10.334;2024-01-06T06:06:30;76158.69;;;7.24
45393;BMP280;31129;44.810;10.334;2024-01-06T06:08:55;76162.03;;;7.30
45393;BMP280;31129;44.810;10.334;2024-01-06T06:11:21;76158.75;;;7.26
45393;BMP280;31129;44.810;10.334;2024-01-06T06:13:47;76162.03;;;7.30
45393;BMP280;31129;44.810;10.334;2024-01-06T06:16:12;76162.03;;;7.30
45393;BMP280;31129;44.810;10.334;2024-01-06T06:18:38;76160.38;;;7.28
45393;BMP280;31129;44.810;10.334;2024-01-06T06:21:06;76171.81;;;7.36
45393;BMP280;31129;44.810;10.334;2024-01-06T06:23:32;76168.59;;;7.36
45393;BMP280;31129;44.810;10.334;2024-01-06T06:25:57;76166.38;;;7.34
45393;BMP280;31129;44.810;10.334;2024-01-06T06:28:23;76170.72;;;7.35
45393;BMP280;31129;44.810;10.334;2024-01-06T06:30:48;76163.13;;;7.31
45393;BMP280;31129;44.810;10.334;2024-01-06T06:33:14;76172.31;;;7.34
45393;BMP280;31129;44.810;10.334;2024-01-06T06:35:40;76170.22;;;7.37
45393;BMP280;31129;44.810;10.334;2024-01-06T06:38:06;76160.38;;;7.28
45393;BMP280;31129;44.810;10.334;2024-01-06T06:40:31;76167.50;;;7.35
45393;BMP280;31129;44.810;10.334;2024-01-06T06:42:57;76160.97;;;7.31
45393;BMP280;31129;44.810;10.334;2024-01-06T06:45:22;76169.13;;;7.36
45393;BMP280;31129;44.810;10.334;2024-01-06T06:47:50;76168.59;;;7.36
45393;BMP280;31129;44.810;10.334;2024-01-06T06:50:16;76166.38;;;7.34
45393;BMP280;31129;44.810;10.334;2024-01-06T06:52:42;76161.00;;;7.34
45393;BMP280;31129;44.810;10.334;2024-01-06T06:55:08;76172.41;;;7.39
45393;BMP280;31129;44.810;10.334;2024-01-06T06:57:34;76172.47;;;7.42
45393;BMP280;31129;44.810;10.334;2024-01-06T06:59:59;76174.66;;;7.44
45393;BMP280;31129;44.810;10.334;2024-01-06T07:02:26;76175.75;;;7.45
45393;BMP280;31129;44.810;10.334;2024-01-06T07:04:51;76181.13;;;7.45
45393;BMP280;31129;44.810;10.334;2024-01-06T07:07:17;76175.69;;;7.42
45393;BMP280;31129;44.810;10.334;2024-01-06T07:09:42;76175.19;;;7.44
45393;BMP280;31129;44.810;10.334;2024-01-06T07:12:08;76168.03;;;7.35
45393;BMP280;31129;44.810;10.334;2024-01-06T07:14:33;76176.25;;;7.45
45393;BMP280;31129;44.810;10.334;2024-01-06T07:16:59;76170.78;;;7.38
45393;BMP280;31129;44.810;10.334;2024-01-06T07:19:24;76177.88;;;7.44
45393;BMP280;31129;44.810;10.334;2024-01-06T07:21:50;76173.56;;;7.43
45393;BMP280;31129;44.810;10.334;2024-01-06T07:24:15;76170.22;;;7.37
45393;BMP280;31129;44.810;10.334;2024-01-06T07:26:41;76168.09;;;7.38
45393;BMP280;31129;44.810;10.334;2024-01-06T07:29:06;76175.16;;;7.42
45393;BMP280;31129;44.810;10.334;2024-01-06T07:31:33;76172.97;;;7.40
45393;BMP280;31129;44.810;10.334;2024-01-06T07:33:59;76167.50;;;7.35
45393;BMP280;31129;44.810;10.334;2024-01-06T07:36:25;76162.63;;;7.33
45393;BMP280;31129;44.810;10.334;2024-01-06T07:38:50;76169.06;;;7.34
45393;BMP280;31129;44.810;10.334;2024-01-06T07:41:17;76158.25;;;7.29
45393;BMP280;31129;44.810;10.334;2024-01-06T07:43:43;76163.19;;;7.36
45393;BMP280;31129;44.810;10.334;2024-01-06T07:46:08;76156.63;;;7.30
45393;BMP280;31129;44.810;10.334;2024-01-06T07:48:35;76163.69;;;7.34
45393;BMP280;31129;44.810;10.334;2024-01-06T07:51:01;76164.75;;;7.32
45393;BMP280;31129;44.810;10.334;2024-01-06T07:53:28;76159.31;;;7.30
45393;BMP280;31129;44.810;10.334;2024-01-06T07:55:53;76165.81;;;7.31
45393;BMP280;31129;44.810;10.334;2024-01-06T07:58:19;76157.69;;;7.28
45393;BMP280;31129;44.810;10.334;2024-01-06T08:00:45;76163.19;;;7.36
45393;BMP280;31129;44.810;10.334;2024-01-06T08:03:10;76171.81;;;7.36
45393;BMP280;31129;44.810;10.334;2024-01-06T08:05:36;76161.53;;;7.32
45393;BMP280;31129;44.810;10.334;2024-01-06T08:08:03;76165.91;;;7.36
45393;BMP280;31129;44.810;10.334;2024-01-06T08:10:29;76167.53;;;7.37
45393;BMP280;31129;44.810;10.334;2024-01-06T08:12:55;76159.25;;;7.24
45393;BMP280;31129;44.810;10.334;2024-01-06T08:15:20;76164.22;;;7.34
45393;BMP280;31129;44.810;10.334;2024-01-06T08:17:46;76155.00;;;7.28
45393;BMP280;31129;44.810;10.334;2024-01-06T08:20:12;76151.16;;;7.24
45393;BMP280;31129;44.810;10.334;2024-01-06T08:22:38;76160.88;;;7.26
45393;BMP280;31129;44.810;10.334;2024-01-06T08:25:04;76157.69;;;7.28
45393;BMP280;31129;44.810;10.334;2024-01-06T08:27:31;76162.03;;;7.30
45393;BMP280;31129;44.810;10.334;2024-01-06T08:29:57;76166.38;;;7.34
45393;BMP280;31129;44.810;10.334;2024-01-06T08:32:22;76168.53;;;7.33
45393;BMP280;31129;44.810;10.334;2024-01-06T08:34:48;76171.22;;;7.33
45393;BMP280;31129;44.810;10.334;2024-01-06T08:37:13;76161.47;;;7.29
45393;BMP280;31129;44.810;10.334;2024-01-06T08:39:39;76179.53;;;7.48
45393;BMP280;31129;44.810;10.334;2024-01-06T08:42:05;76175.19;;;7.44
45393;BMP280;31129;44.810;10.334;2024-01-06T08:44:30;76176.25;;;7.43
45393;BMP280;31129;44.810;10.334;2024-01-06T08:46:56;76166.38;;;7.34
45393;BMP280;31129;44.810;10.334;2024-01-06T08:49:22;76164.22;;;7.34
45393;BMP280;31129;44.810;10.334;2024-01-06T08:51:47;76165.34;;;7.35
45393;BMP280;31129;44.810;10.334;2024-01-06T08:54:13;76167.50;;;7.35
45393;BMP280;31129;44.810;10.334;2024-01-06T08:56:38;76166.38;;;7.34
45393;BMP280;31129;44.810;10.334;2024-01-06T08:59:04;76170.28;;;7.40
45393;BMP280;31129;44.810;10.334;2024-01-06T09:01:30;76179.50;;;7.46
45393;BMP280;31129;44.810;10.334;2024-01-06T09:03:57;76181.22;;;7.50
45393;BMP280;31129;44.810;10.334;2024-01-06T09:06:23;76170.22;;;7.37
45393;BMP280;31129;44.810;10.334;2024-01-06T09:08:48;76170.84;;;7.43
45393;BMP280;31129;44.810;10.334;2024-01-06T09:11:14;76172.97;;;7.40
45393;BMP280;31129;44.810;10.334;2024-01-06T09:13:40;76176.25;;;7.43
45393;BMP280;31129;44.810;10.334;2024-01-06T09:16:05;76172.50;;;7.44
45393;BMP280;31129;44.810;10.334;2024-01-06T09:18:31;76167.56;;;7.40
45393;BMP280;31129;44.810;10.334;2024-01-06T09:20:57;76176.31;;;7.48
45393;BMP280;31129;44.810;10.334;2024-01-06T09:23:22;76175.69;;;7.42
45393;BMP280;31129;44.810;10.334;2024-01-06T09:25:48;76176.84;;;7.48
45393;BMP280;31129;44.810;10.334;2024-01-06T09:28:18;76180.09;;;7.49
45393;BMP280;31129;44.810;10.334;2024-01-06T09:30:44;76183.34;;;7.49
45393;BMP280;31129;44.810;10.334;2024-01-06T09:33:09;76186.03;;;7.49
45393;BMP280;31129;44.810;10.334;2024-01-06T09:35:35;76174.13;;;7.46
45393;BMP280;31129;44.810;10.334;2024-01-06T09:38:00;76181.69;;;7.48
45393;BMP280;31129;44.810;10.334;2024-01-06T09:40:26;76181.22;;;7.50
45393;BMP280;31129;44.810;10.334;2024-01-06T09:42:52;76183.94;;;7.52
45393;BMP280;31129;44.810;10.334;2024-01-06T09:45:21;76175.19;;;7.44
45393;BMP280;31129;44.810;10.334;2024-01-06T09:47:49;76175.75;;;7.45
45393;BMP280;31129;44.810;10.334;2024-01-06T09:50:18;76178.97;;;7.45
45393;BMP280;31129;44.810;10.334;2024-01-06T09:52:45;76180.16;;;7.51
45393;BMP280;31129;44.810;10.334;2024-01-06T09:55:18;76178.50;;;7.50
45393;BMP280;31129;44.810;10.334;2024-01-06T09:57:45;76186.63;;;7.52
45393;BMP280;31129;44.810;10.334;2024-01-06T10:00:11;76185.47;;;7.49
45393;BMP280;31129;44.810;10.334;2024-01-06T10:02:37;76181.22;;;7.50
45393;BMP280;31129;44.810;10.334;2024-01-06T10:05:02;76192.13;;;7.60
45393;BMP280;31129;44.810;10.334;2024-01-06T10:07:29;76186.03;;;7.49
45393;BMP280;31129;44.810;10.334;2024-01-06T10:09:54;76191.00;;;7.56
45393;BMP280;31129;44.810;10.334;2024-01-06T10:12:26;76186.13;;;7.54
45393;BMP280;31129;44.810;10.334;2024-01-06T10:14:53;76186.13;;;7.54
45393;BMP280;31129;44.810;10.334;2024-01-06T10:17:19;76188.28;;;7.56
45393;BMP280;31129;44.810;10.334;2024-01-06T10:19:45;76183.97;;;7.55
45393;BMP280;31129;44.810;10.334;2024-01-06T10:22:11;76176.97;;;7.53
45393;BMP280;31129;44.810;10.334;2024-01-06T10:24:37;76190.53;;;7.61
45393;BMP280;31129;44.810;10.334;2024-01-06T10:27:03;76184.50;;;7.53
45393;BMP280;31129;44.810;10.334;2024-01-06T10:29:29;76192.72;;;7.63
45393;BMP280;31129;44.810;10.334;2024-01-06T10:31:54;76183.94;;;7.52
45393;BMP280;31129;44.810;10.334;2024-01-06T10:34:21;76194.84;;;7.63
45393;BMP280;31129;44.810;10.334;2024-01-06T10:36:47;76192.66;;;7.60
45393;BMP280;31129;44.810;10.334;2024-01-06T10:39:13;76196.41;;;7.59
45393;BMP280;31129;44.810;10.334;2024-01-06T10:41:41;76201.41;;;7.66
45393;BMP280;31129;44.810;10.334;2024-01-06T10:44:09;76194.84;;;7.63
45393;BMP280;31129;44.810;10.334;2024-01-06T10:46:35;76194.28;;;7.59
45393;BMP280;31129;44.810;10.334;2024-01-06T10:49:02;76196.50;;;7.64
45393;BMP280;31129;44.810;10.334;2024-01-06T10:51:28;76194.31;;;7.62
45393;BMP280;31129;44.810;10.334;2024-01-06T10:53:57;76188.28;;;7.54
45393;BMP280;31129;44.810;10.334;2024-01-06T10:56:23;76185.53;;;7.51
45393;BMP280;31129;44.810;10.334;2024-01-06T10:58:50;76188.34;;;7.59
45393;BMP280;31129;44.810;10.334;2024-01-06T11:01:22;76199.81;;;7.67
45393;BMP280;31129;44.810;10.334;2024-01-06T11:03:48;76201.41;;;7.66
45393;BMP280;31129;44.810;10.334;2024-01-06T11:06:14;76213.41;;;7.77
45393;BMP280;31129;44.810;10.334;2024-01-06T11:11:18;76205.28;;;7.75
45393;BMP280;31129;44.810;10.334;2024-01-06T11:13:45;76214.47;;;7.76
45393;BMP280;31129;44.810;10.334;2024-01-06T11:16:35;76217.84;;;7.84
45393;BMP280;31129;44.810;10.334;2024-01-06T11:19:01;76201.47;;;7.71
45393;BMP280;31129;44.810;10.334;2024-01-06T11:21:27;76206.91;;;7.74
45393;BMP280;31129;44.810;10.334;2024-01-06T11:26:31;76198.72;;;7.66
45393;BMP280;31129;44.810;10.334;2024-01-06T11:28:57;76206.94;;;7.76
45393;BMP280;31129;44.810;10.334;2024-01-06T11:31:29;76202.56;;;7.72
45393;BMP280;31129;44.810;10.334;2024-01-06T11:33:55;76192.16;;;7.63
45393;BMP280;31129;44.810;10.334;2024-01-06T11:36:21;76203.06;;;7.70
45393;BMP280;31129;44.810;10.334;2024-01-06T11:38:47;76205.22;;;7.70
45393;BMP280;31129;44.810;10.334;2024-01-06T11:44:00;76214.50;;;7.78
45393;BMP280;31129;44.810;10.334;2024-01-06T11:46:26;76211.81;;;7.78
45393;BMP280;31129;44.810;10.334;2024-01-06T11:48:52;76220.56;;;7.86
45393;BMP280;31129;44.810;10.334;2024-01-06T11:51:18;76210.19;;;7.79
45393;BMP280;31129;44.810;10.334;2024-01-06T11:53:44;76211.78;;;7.76
45393;BMP280;31129;44.810;10.334;2024-01-06T11:56:11;76204.72;;;7.72
45393;BMP280;31129;44.810;10.334;2024-01-06T11:58:39;76208.03;;;7.77
45393;BMP280;31129;44.810;10.334;2024-01-06T12:01:04;76209.03;;;7.73
45393;BMP280;31129;44.810;10.334;2024-01-06T12:03:30;76216.75;;;7.83
45393;BMP280;31129;44.810;10.334;2024-01-06T12:06:00;76206.34;;;7.73
45393;BMP280;31129;44.810;10.334;2024-01-06T12:08:26;76208.53;;;7.75
45393;BMP280;31129;44.810;10.334;2024-01-06T12:11:02;76210.75;;;7.80
45393;BMP280;31129;44.810;10.334;2024-01-06T12:13:27;76204.75;;;7.74
45393;BMP280;31129;44.810;10.334;2024-01-06T12:15:53;76217.84;;;7.84
45393;BMP280;31129;44.810;10.334;2024-01-06T12:18:18;76206.91;;;7.74
45393;BMP280;31129;44.810;10.334;2024-01-06T12:20:44;76220.03;;;7.86
45393;BMP280;31129;44.810;10.334;2024-01-06T12:23:10;76224.34;;;7.87
45393;BMP280;31129;44.810;10.334;2024-01-06T12:25:35;76229.31;;;7.94
45393;BMP280;31129;44.810;10.334;2024-01-06T12:28:01;76218.44;;;7.87
45393;BMP280;31129;44.810;10.334;2024-01-06T12:30:28;76220.56;;;7.86
45393;BMP280;31129;44.810;10.334;2024-01-06T12:32:55;76220.59;;;7.89
45393;BMP280;31129;44.810;10.334;2024-01-06T12:35:21;76220.03;;;7.86
45393;BMP280;31129;44.810;10.334;2024-01-06T12:37:48;76212.94;;;7.82
45393;BMP280;31129;44.810;10.334;2024-01-06T12:40:14;76219.53;;;7.88
45393;BMP280;31129;44.810;10.334;2024-01-06T12:42:42;76210.75;;;7.80
45393;BMP280;31129;44.810;10.334;2024-01-06T12:45:08;76213.44;;;7.80
45393;BMP280;31129;44.810;10.334;2024-01-06T12:47:35;76209.09;;;7.76
45393;BMP280;31129;44.810;10.334;2024-01-06T12:50:00;76211.78;;;7.76
45393;BMP280;31129;44.810;10.334;2024-01-06T12:52:26;76208.06;;;7.80
45393;BMP280;31129;44.810;10.334;2024-01-06T12:54:51;76214.59;;;7.83
45393;BMP280;31129;44.810;10.334;2024-01-06T12:57:18;76215.69;;;7.84
45393;BMP280;31129;44.810;10.334;2024-01-06T12:59:43;76214.56;;;7.81
45393;BMP280;31129;44.810;10.334;2024-01-06T13:02:09;76214.00;;;7.80
45393;BMP280;31129;44.810;10.334;2024-01-06T13:04:34;76220.53;;;7.84
45393;BMP280;31129;44.810;10.334;2024-01-06T13:07:00;76227.06;;;7.90
45393;BMP280;31129;44.810;10.334;2024-01-06T13:09:27;76223.91;;;7.94
45393;BMP280;31129;44.810;10.334;2024-01-06T13:11:53;76224.97;;;7.93
45393;BMP280;31129;44.810;10.334;2024-01-06T13:14:21;76225.50;;;7.93
45393;BMP280;31129;44.810;10.334;2024-01-06T13:16:46;76229.38;;;7.97
45393;BMP280;31129;44.810;10.334;2024-01-06T13:19:12;76235.34;;;8.03
45393;BMP280;31129;44.810;10.334;2024-01-06T13:21:37;76228.81;;;7.97
45393;BMP280;31129;44.810;10.334;2024-01-06T13:24:06;76229.94;;;8.00
45393;BMP280;31129;44.810;10.334;2024-01-06T13:26:32;76227.16;;;7.95
45393;BMP280;31129;44.810;10.334;2024-01-06T13:28:58;76229.38;;;7.97
45393;BMP280;31129;44.810;10.334;2024-01-06T13:31:23;76232.09;;;8.00
45393;BMP280;31129;44.810;10.334;2024-01-06T13:33:49;76234.25;;;7.99
45393;BMP280;31129;44.810;10.334;2024-01-06T13:36:17;76241.34;;;8.06
45393;BMP280;31129;44.810;10.334;2024-01-06T13:38:43;76238.59;;;8.03
45393;BMP280;31129;44.810;10.334;2024-01-06T13:41:09;76237.03;;;8.07
45393;BMP280;31129;44.810;10.334;2024-01-06T13:43:34;76240.28;;;8.07
45393;BMP280;31129;44.810;10.334;2024-01-06T13:46:00;76239.09;;;7.99
45393;BMP280;31129;44.810;10.334;2024-01-06T13:48:25;76240.78;;;8.05
45393;BMP280;31129;44.810;10.334;2024-01-06T13:50:51;76249.50;;;8.11
45393;BMP280;31129;44.810;10.334;2024-01-06T13:53:16;76245.72;;;8.10
45393;BMP280;31129;44.810;10.334;2024-01-06T13:55:42;76237.56;;;8.05
45393;BMP280;31129;44.810;10.334;2024-01-06T13:58:07;76245.66;;;8.07
45393;BMP280;31129;44.810;10.334;2024-01-06T14:00:35;76239.78;;;8.09
45393;BMP280;31129;44.810;10.334;2024-01-06T14:03:01;76244.06;;;8.08
45393;BMP280;31129;44.810;10.334;2024-01-06T14:05:27;76245.66;;;8.07
45393;BMP280;31129;44.810;10.334;2024-01-06T14:07:53;76252.25;;;8.13
45393;BMP280;31129;44.810;10.334;2024-01-06T14:10:19;76250.69;;;8.17
45393;BMP280;31129;44.810;10.334;2024-01-06T14:12:44;76249.53;;;8.13